Time;durP1;ratioP1;P1;durP2;ratioP2;P2;SDS_P1;SDS_P2;PMS_P1;PMS_P2;Temp;Humidity;BMP_temperature;BMP_pressure;BME280_temperature;BME280_humidity;BME280_pressure;Samples;Min_cycle;Max_cycle;Signal;HPM_P1;HPM_P2
2021/01/23 00:01:54;;;;;;;0.97;0.60;;;;;;;1.55;100.00;94129.25;5036818;28;20558;-85
2021/01/23 00:04:20;;;;;;;0.70;0.70;;;;;;;1.47;100.00;94122.53;5035841;28;20435;-85
2021/01/23 00:06:47;;;;;;;1.00;0.90;;;;;;;1.52;100.00;94137.56;5036109;28;20431;-85
2021/01/23 00:09:14;;;;;;;1.37;0.70;;;;;;;1.46;100.00;94137.06;5036807;28;20444;-85
2021/01/23 00:11:40;;;;;;;0.83;0.63;;;;;;;1.44;100.00;94134.22;5036129;28;20482;-85
2021/01/23 00:14:06;;;;;;;0.90;0.60;;;;;;;1.38;100.00;94141.69;5035649;28;20523;-85
2021/01/23 00:16:33;;;;;;;1.00;0.90;;;;;;;1.41;100.00;94149.25;5046200;28;20487;-84
2021/01/23 00:18:59;;;;;;;0.80;0.70;;;;;;;1.42;100.00;94132.09;5060213;28;20427;-84
2021/01/23 00:21:25;;;;;;;0.80;0.80;;;;;;;1.39;100.00;94159.00;5060122;28;20510;-84
2021/01/23 00:23:53;;;;;;;1.17;1.07;;;;;;;1.36;100.00;94155.47;5049506;28;20543;-85
2021/01/23 00:26:19;;;;;;;1.00;0.97;;;;;;;1.42;100.00;94165.91;5036219;28;20534;-82
2021/01/23 00:28:45;;;;;;;2.10;1.43;;;;;;;1.34;100.00;94160.63;5036083;28;20487;-83
2021/01/23 00:31:13;;;;;;;1.33;1.23;;;;;;;1.36;100.00;94170.69;5036174;28;20485;-83
2021/01/23 00:33:39;;;;;;;2.00;1.67;;;;;;;1.43;100.00;94172.66;5035819;28;20436;-83
2021/01/23 00:36:07;;;;;;;1.60;1.50;;;;;;;1.40;100.00;94165.75;5036319;28;20431;-83
2021/01/23 00:38:34;;;;;;;1.63;1.33;;;;;;;1.42;100.00;94173.88;5036690;28;20489;-83
2021/01/23 00:41:01;;;;;;;2.40;1.60;;;;;;;1.34;100.00;94189.13;5035941;28;20525;-83
2021/01/23 00:43:27;;;;;;;1.73;1.53;;;;;;;1.32;100.00;94183.63;5035913;28;21002;-85
2021/01/23 00:45:54;;;;;;;2.43;1.83;;;;;;;1.34;100.00;94178.50;5035424;28;20453;-85
2021/01/23 00:48:20;;;;;;;3.20;2.40;;;;;;;1.25;100.00;94187.00;5035653;28;20560;-85
2021/01/23 00:50:47;;;;;;;2.83;2.60;;;;;;;1.30;100.00;94199.41;5035622;28;20451;-85
2021/01/23 00:53:13;;;;;;;2.83;2.53;;;;;;;1.27;100.00;94192.47;5035169;28;20935;-85
2021/01/23 00:55:39;;;;;;;3.50;2.63;;;;;;;1.26;100.00;94186.47;5035309;28;20489;-84
2021/01/23 00:58:07;;;;;;;2.67;2.47;;;;;;;1.33;100.00;94193.00;5035454;28;20443;-84
2021/01/23 01:00:33;;;;;;;4.73;3.00;;;;;;;1.24;100.00;94193.56;5035201;28;20459;-85
2021/01/23 01:02:59;;;;;;;5.90;4.10;;;;;;;1.20;100.00;94195.84;5035324;28;20458;-84
2021/01/23 01:05:26;;;;;;;3.13;2.67;;;;;;;1.20;100.00;94196.56;5035303;28;20447;-85
2021/01/23 01:07:52;;;;;;;5.90;3.80;;;;;;;1.19;100.00;94203.09;5038304;28;20490;-82
2021/01/23 01:10:19;;;;;;;4.90;3.90;;;;;;;1.15;100.00;94196.72;5038630;28;20526;-82
2021/01/23 01:12:45;;;;;;;6.20;4.13;;;;;;;1.14;100.00;94200.63;5038160;28;20436;-82
2021/01/23 01:15:13;;;;;;;7.47;3.60;;;;;;;1.08;100.00;94198.84;5038227;28;20498;-81
2021/01/23 01:17:39;;;;;;;5.57;4.17;;;;;;;1.12;100.00;94232.31;5037421;28;20444;-81
2021/01/23 01:20:07;;;;;;;7.10;5.60;;;;;;;1.13;100.00;94239.75;5049530;28;20443;-86
2021/01/23 01:22:33;;;;;;;7.47;5.80;;;;;;;1.12;100.00;94242.94;5059412;28;20491;-86
2021/01/23 01:25:00;;;;;;;9.03;6.23;;;;;;;0.96;100.00;94247.50;5059269;28;20427;-86
2021/01/23 01:27:26;;;;;;;17.37;8.23;;;;;;;1.04;100.00;94251.59;5059225;28;20522;-86
2021/01/23 01:29:52;;;;;;;13.17;7.50;;;;;;;1.11;100.00;94252.84;5044012;28;20453;-82
2021/01/23 01:32:20;;;;;;;9.20;7.07;;;;;;;1.06;100.00;94257.09;5035891;28;20479;-85
2021/01/23 01:34:46;;;;;;;9.83;6.23;;;;;;;1.14;100.00;94257.09;5033885;28;20459;-85
2021/01/23 01:37:12;;;;;;;9.37;6.60;;;;;;;1.18;100.00;94267.38;5033565;28;20470;-85
2021/01/23 01:39:39;;;;;;;8.47;6.40;;;;;;;1.23;100.00;94271.78;5034146;28;20435;-84
2021/01/23 01:42:06;;;;;;;9.80;7.60;;;;;;;1.22;100.00;94279.06;5034290;28;20428;-84
2021/01/23 01:44:32;;;;;;;11.17;7.23;;;;;;;1.31;100.00;94291.13;5034196;28;20424;-84
2021/01/23 01:47:00;;;;;;;9.43;7.20;;;;;;;1.32;100.00;94281.91;5033904;28;20541;-85
2021/01/23 01:49:28;;;;;;;9.63;6.30;;;;;;;1.34;100.00;94287.41;5034240;28;20435;-85
2021/01/23 01:51:55;;;;;;;7.43;5.33;;;;;;;1.41;100.00;94297.34;5034122;28;20467;-85
2021/01/23 01:54:23;;;;;;;7.53;4.77;;;;;;;1.50;100.00;94302.13;5034334;28;20439;-85
2021/01/23 01:56:49;;;;;;;5.63;3.80;;;;;;;1.52;100.00;94295.03;5034369;28;20439;-83
2021/01/23 01:59:16;;;;;;;9.20;4.37;;;;;;;1.54;100.00;94305.84;5034327;28;20821;-84
2021/01/23 02:01:42;;;;;;;5.70;3.87;;;;;;;1.50;100.00;94308.13;5034024;28;20475;-83
2021/01/23 02:04:24;;;;;;;4.83;4.13;;;;;;;1.53;100.00;94312.41;5034303;28;20526;-83
2021/01/23 02:07:08;;;;;;;4.67;3.93;;;;;;;1.49;100.00;94317.34;5034360;28;20415;-83
2021/01/23 02:09:48;;;;;;;4.20;3.60;;;;;;;1.59;100.00;94320.19;5037498;28;20502;-82
2021/01/23 02:12:23;;;;;;;4.03;3.13;;;;;;;1.60;100.00;94332.94;5037762;28;20545;-82
2021/01/23 02:14:59;;;;;;;4.17;3.60;;;;;;;1.68;100.00;94342.88;5037913;28;20431;-82
2021/01/23 02:17:31;;;;;;;4.80;2.83;;;;;;;1.70;100.00;94346.41;5037332;28;20494;-82
2021/01/23 02:20:13;;;;;;;3.70;2.97;;;;;;;1.71;100.00;94345.19;5037726;28;20467;-82
2021/01/23 02:23:10;;;;;;;2.50;2.30;;;;;;;1.67;100.00;94354.75;5038717;28;20439;-82
2021/01/23 02:25:45;;;;;;;2.50;2.30;;;;;;;1.70;100.00;94359.72;5035831;28;20911;-85
2021/01/23 02:28:18;;;;;;;3.50;2.63;;;;;;;1.74;100.00;94359.38;5034249;28;20467;-85
2021/01/23 02:30:59;;;;;;;2.90;2.43;;;;;;;1.83;100.00;94364.16;5033954;28;20459;-85
2021/01/23 02:33:29;;;;;;;2.20;2.00;;;;;;;1.89;100.00;94373.38;5034095;28;20434;-85
2021/01/23 02:35:55;;;;;;;2.20;2.00;;;;;;;1.87;100.00;94375.16;5033665;28;20814;-85
2021/01/23 02:38:23;;;;;;;3.00;2.30;;;;;;;1.80;100.00;94375.84;5033363;28;20930;-86
2021/01/23 02:40:49;;;;;;;2.70;2.10;;;;;;;1.84;100.00;94389.50;5033538;28;20600;-85
2021/01/23 02:43:20;;;;;;;3.03;2.50;;;;;;;1.92;100.00;94390.94;5033800;28;20465;-85
2021/01/23 02:45:48;;;;;;;2.80;2.40;;;;;;;1.94;100.00;94396.41;5033698;28;20502;-85
2021/01/23 02:48:16;;;;;;;1.90;1.40;;;;;;;1.92;100.00;94398.91;5039241;28;20483;-82
2021/01/23 02:50:43;;;;;;;1.97;1.53;;;;;;;2.02;100.00;94405.13;5040789;28;20543;-82
2021/01/23 02:53:16;;;;;;;1.17;0.93;;;;;;;2.00;100.00;94394.31;5040441;28;20436;-82
2021/01/23 02:55:45;;;;;;;1.20;1.10;;;;;;;2.02;100.00;94405.13;5038297;28;20514;-84
2021/01/23 02:58:13;;;;;;;2.20;1.20;;;;;;;2.01;100.00;94403.69;5038896;28;20450;-85
2021/01/23 03:00:42;;;;;;;1.77;1.40;;;;;;;1.94;100.00;94399.06;5037661;28;20462;-85
2021/01/23 03:03:09;;;;;;;2.07;1.27;;;;;;;2.00;100.00;94410.28;5037925;28;20875;-83
2021/01/23 03:05:37;;;;;;;2.07;1.40;;;;;;;2.05;100.00;94417.34;5036930;28;20450;-82
2021/01/23 03:08:04;;;;;;;1.87;1.73;;;;;;;2.08;100.00;94423.56;5037232;28;20822;-83
2021/01/23 03:10:38;;;;;;;1.43;1.33;;;;;;;1.99;100.00;94432.06;5037599;28;20501;-83
2021/01/23 03:13:05;;;;;;;1.40;1.27;;;;;;;2.02;100.00;94434.38;5037533;28;20424;-83
2021/01/23 03:15:31;;;;;;;1.90;1.50;;;;;;;2.03;100.00;94443.78;5037388;28;20445;-83
2021/01/23 03:17:58;;;;;;;1.23;1.13;;;;;;;2.09;100.00;94436.34;5037328;28;20802;-83
2021/01/23 03:20:25;;;;;;;2.30;1.73;;;;;;;2.16;100.00;94442.91;5036758;28;20979;-85
2021/01/23 03:22:53;;;;;;;1.70;1.60;;;;;;;2.13;100.00;94449.28;5037189;28;20439;-85
2021/01/23 03:25:19;;;;;;;1.40;1.30;;;;;;;2.15;100.00;94444.16;5036562;28;20418;-86
2021/01/23 03:27:45;;;;;;;2.20;1.57;;;;;;;2.11;100.00;94446.44;5036386;28;20483;-84
2021/01/23 03:30:13;;;;;;;1.67;1.57;;;;;;;2.11;100.00;94447.16;5038770;28;20478;-83
2021/01/23 03:32:39;;;;;;;2.17;1.87;;;;;;;2.15;100.00;94454.78;5038964;28;20531;-84
2021/01/23 03:35:07;;;;;;;2.00;1.20;;;;;;;2.18;100.00;94461.69;5038793;28;20534;-85
2021/01/23 03:37:33;;;;;;;1.70;1.60;;;;;;;2.20;100.00;94458.50;5036299;28;20474;-85
2021/01/23 03:40:02;;;;;;;3.40;2.37;;;;;;;2.21;100.00;94465.97;5036468;28;20971;-85
2021/01/23 03:42:28;;;;;;;1.83;1.60;;;;;;;2.19;100.00;94460.47;5037160;28;20447;-85
2021/01/23 03:44:55;;;;;;;2.30;1.70;;;;;;;2.25;100.00;94458.34;5036731;28;20478;-85
2021/01/23 03:47:21;;;;;;;1.73;1.40;;;;;;;2.23;100.00;94468.78;5036807;28;20494;-84
2021/01/23 03:49:48;;;;;;;2.17;1.60;;;;;;;2.14;100.00;94474.63;5037001;28;20454;-83
2021/01/23 03:52:15;;;;;;;2.30;1.93;;;;;;;2.06;100.00;94479.94;5037155;28;21026;-84
2021/01/23 03:54:41;;;;;;;1.97;1.40;;;;;;;1.98;100.00;94475.84;5036031;28;20979;-84
2021/01/23 03:57:09;;;;;;;3.93;2.10;;;;;;;2.00;100.00;94486.69;5036449;28;20443;-84
2021/01/23 03:59:36;;;;;;;3.30;1.97;;;;;;;1.96;100.00;94481.69;5035682;28;20808;-84
2021/01/23 04:02:03;;;;;;;4.70;1.50;;;;;;;2.00;100.00;94490.06;5036443;28;20450;-84
2021/01/23 04:04:29;;;;;;;3.03;1.80;;;;;;;2.04;100.00;94492.34;5036430;28;20454;-84
2021/01/23 04:06:56;;;;;;;2.47;1.80;;;;;;;2.03;100.00;94494.31;5036519;28;20458;-83
2021/01/23 04:09:22;;;;;;;2.40;1.80;;;;;;;2.13;100.00;94497.84;5036194;28;20521;-85
2021/01/23 04:11:49;;;;;;;2.50;2.30;;;;;;;2.08;100.00;94495.38;5035808;28;20478;-85
2021/01/23 04:14:18;;;;;;;2.40;2.20;;;;;;;2.08;100.00;94504.06;5036269;28;20450;-85
2021/01/23 04:16:46;;;;;;;3.83;2.00;;;;;;;1.98;100.00;94513.06;5035885;28;21011;-85
2021/01/23 04:19:13;;;;;;;2.63;2.10;;;;;;;2.07;100.00;94513.28;5036058;28;20447;-85
2021/01/23 04:21:39;;;;;;;4.00;2.43;;;;;;;1.99;100.00;94511.84;5058008;28;20436;-84
2021/01/23 04:24:06;;;;;;;3.43;2.47;;;;;;;2.07;100.00;94521.25;5060335;28;20442;-84
2021/01/23 04:26:32;;;;;;;2.13;1.93;;;;;;;2.06;100.00;94519.13;5060152;28;20463;-84
2021/01/23 04:28:59;;;;;;;2.53;2.00;;;;;;;2.14;100.00;94528.53;5051367;28;20494;-85
2021/01/23 04:31:26;;;;;;;3.93;1.80;;;;;;;2.13;100.00;94521.09;5035926;28;20434;-86
2021/01/23 04:33:52;;;;;;;5.23;1.90;;;;;;;2.16;100.00;94520.72;5036020;28;20443;-85
2021/01/23 04:36:19;;;;;;;2.63;1.73;;;;;;;2.20;100.00;94522.34;5035567;28;20542;-85
2021/01/23 04:38:45;;;;;;;3.20;2.30;;;;;;;2.23;100.00;94515.97;5035980;28;20425;-85
2021/01/23 04:41:11;;;;;;;5.57;2.13;;;;;;;2.16;100.00;94512.06;5035398;28;20528;-85
2021/01/23 04:43:38;;;;;;;6.07;1.97;;;;;;;2.29;100.00;94513.88;5035366;28;20776;-85
2021/01/23 04:46:05;;;;;;;2.97;2.07;;;;;;;2.25;100.00;94516.16;5035141;28;20406;-86
2021/01/23 04:48:33;;;;;;;2.03;1.83;;;;;;;2.18;100.00;94512.25;5035297;28;20926;-85
2021/01/23 04:51:00;;;;;;;2.40;1.90;;;;;;;2.13;100.00;94502.50;5034910;28;20461;-85
2021/01/23 04:53:27;;;;;;;2.93;2.33;;;;;;;2.11;100.00;94505.66;5035509;28;20936;-85
2021/01/23 04:55:53;;;;;;;3.00;2.17;;;;;;;2.21;100.00;94510.47;5035407;28;20418;-85
2021/01/23 04:58:19;;;;;;;3.17;2.03;;;;;;;2.25;100.00;94508.88;5035413;28;20454;-85
2021/01/23 05:00:46;;;;;;;3.17;2.73;;;;;;;2.17;100.00;94508.88;5035505;28;20798;-84
2021/01/23 05:03:13;;;;;;;5.10;2.40;;;;;;;2.15;100.00;94503.38;5037657;28;20525;-85
2021/01/23 05:05:40;;;;;;;3.20;1.90;;;;;;;2.13;100.00;94508.50;5035233;28;20435;-85
2021/01/23 05:08:08;;;;;;;2.10;1.87;;;;;;;2.22;100.00;94511.91;5035028;28;20570;-85
2021/01/23 05:10:35;;;;;;;3.43;2.60;;;;;;;2.22;100.00;94512.59;5035269;28;20486;-84
2021/01/23 05:13:11;;;;;;;3.97;3.30;;;;;;;2.27;100.00;94514.38;5035792;28;20887;-86
2021/01/23 05:15:37;;;;;;;3.60;2.03;;;;;;;2.26;100.00;94512.22;5035722;28;20447;-85
2021/01/23 05:18:06;;;;;;;3.20;1.93;;;;;;;2.26;100.00;94512.94;5035446;28;20450;-85
2021/01/23 05:20:35;;;;;;;3.13;2.20;;;;;;;2.29;100.00;94506.56;5036263;28;20474;-85
2021/01/23 05:23:08;;;;;;;2.97;2.60;;;;;;;2.24;100.00;94512.06;5040548;28;20443;-84
2021/01/23 05:25:35;;;;;;;2.30;2.10;;;;;;;2.26;100.00;94509.56;5035066;28;20432;-85
2021/01/23 05:28:03;;;;;;;2.70;2.50;;;;;;;2.24;100.00;94515.44;5034328;28;21003;-85
2021/01/23 05:30:44;;;;;;;4.03;2.77;;;;;;;2.31;100.00;94522.00;5034344;28;20477;-85
2021/01/23 05:33:12;;;;;;;2.90;2.10;;;;;;;2.17;100.00;94524.81;5035080;28;20438;-85
2021/01/23 05:35:39;;;;;;;5.63;2.00;;;;;;;2.24;100.00;94528.03;5034104;28;20447;-85
2021/01/23 05:38:24;;;;;;;2.07;1.87;;;;;;;2.22;100.00;94533.88;5034529;28;20430;-85
2021/01/23 05:40:52;;;;;;;3.20;2.43;;;;;;;2.24;100.00;94539.38;5034690;28;20520;-85
2021/01/23 05:43:34;;;;;;;3.47;2.20;;;;;;;2.21;100.00;94539.72;5034730;28;20417;-86
2021/01/23 05:46:04;;;;;;;4.37;3.13;;;;;;;2.21;100.00;94535.13;5032492;28;20451;-86
2021/01/23 05:48:31;;;;;;;2.30;2.10;;;;;;;2.16;100.00;94542.00;5034237;28;20477;-85
2021/01/23 05:50:58;;;;;;;2.80;2.20;;;;;;;2.20;100.00;94527.66;5034697;28;20475;-85
2021/01/23 05:53:25;;;;;;;4.30;2.30;;;;;;;2.30;100.00;94539.22;5034408;28;20905;-85
2021/01/23 05:55:52;;;;;;;1.80;1.60;;;;;;;2.30;100.00;94533.88;5034679;28;20474;-86
2021/01/23 05:58:18;;;;;;;2.93;2.10;;;;;;;2.27;100.00;94532.28;5034445;28;20435;-84
2021/01/23 06:00:48;;;;;;;4.23;2.57;;;;;;;2.20;100.00;94538.28;5034257;28;20447;-84
2021/01/23 06:03:15;;;;;;;2.30;1.80;;;;;;;2.25;100.00;94527.50;5034589;28;20435;-84
2021/01/23 06:05:41;;;;;;;3.90;2.27;;;;;;;2.28;100.00;94539.75;5034280;28;20827;-84
2021/01/23 06:08:08;;;;;;;6.30;2.50;;;;;;;2.25;100.00;94530.16;5035412;28;20487;-84
2021/01/23 06:10:42;;;;;;;2.20;2.00;;;;;;;2.35;100.00;94520.41;5035176;28;20547;-84
2021/01/23 06:13:42;;;;;;;3.63;2.07;;;;;;;2.20;100.00;94520.38;5035496;28;20444;-84
2021/01/23 06:16:38;;;;;;;2.97;2.00;;;;;;;2.11;100.00;94518.97;5016245;28;20447;-83
2021/01/23 06:19:38;;;;;;;3.90;2.40;;;;;;;2.07;100.00;94509.91;5015796;28;20573;-83
2021/01/23 06:22:04;;;;;;;3.93;2.60;;;;;;;2.06;100.00;94519.84;5022337;28;20527;-86
2021/01/23 06:24:55;;;;;;;3.57;2.27;;;;;;;2.10;100.00;94511.50;5041128;28;20423;-86
2021/01/23 06:27:48;;;;;;;3.37;2.80;;;;;;;2.04;100.00;94510.94;5012745;28;20496;-84
2021/01/23 06:30:36;;;;;;;6.43;2.87;;;;;;;2.07;100.00;94515.22;5022597;28;20460;-83
2021/01/23 06:33:32;;;;;;;3.90;2.60;;;;;;;2.01;100.00;94504.75;5015697;28;20645;-85
2021/01/23 06:36:17;;;;;;;3.40;2.40;;;;;;;1.99;100.00;94514.50;5018914;28;20435;-85
2021/01/23 06:39:01;;;;;;;3.30;2.60;;;;;;;1.99;100.00;94509.91;5021705;28;20438;-84
2021/01/23 06:41:27;;;;;;;7.53;2.73;;;;;;;1.94;100.00;94518.72;5041223;28;20434;-85
2021/01/23 06:44:19;;;;;;;3.60;2.97;;;;;;;2.02;100.00;94508.84;5041778;28;20448;-83
2021/01/23 06:46:57;;;;;;;4.60;3.13;;;;;;;1.98;100.00;94519.09;5020142;28;20495;-85
2021/01/23 06:49:26;;;;;;;4.50;2.97;;;;;;;2.01;100.00;94512.00;5017557;28;20514;-84
2021/01/23 06:52:05;;;;;;;3.97;3.03;;;;;;;1.95;100.00;94514.13;5017834;28;20496;-86
2021/01/23 06:54:32;;;;;;;5.27;3.00;;;;;;;1.97;100.00;94515.00;5018125;28;20436;-86
2021/01/23 06:56:59;;;;;;;5.20;3.40;;;;;;;1.89;100.00;94510.91;5017724;28;20442;-86
2021/01/23 06:59:27;;;;;;;6.47;3.00;;;;;;;2.00;100.00;94513.28;5018092;28;20444;-86
2021/01/23 07:02:01;;;;;;;4.13;2.80;;;;;;;2.02;100.00;94510.78;5019452;28;20448;-85
2021/01/23 07:04:29;;;;;;;4.10;2.87;;;;;;;1.97;100.00;94509.00;5017747;28;20432;-86
2021/01/23 07:06:56;;;;;;;8.80;3.03;;;;;;;2.00;100.00;94516.63;5017880;28;20436;-85
2021/01/23 07:09:44;;;;;;;5.77;3.47;;;;;;;1.96;100.00;94518.22;5017712;28;21056;-86
2021/01/23 07:12:11;;;;;;;5.63;3.73;;;;;;;1.94;100.00;94520.69;5017990;28;20455;-83
2021/01/23 07:14:39;;;;;;;3.73;2.90;;;;;;;1.94;100.00;94516.06;5017523;28;20458;-85
2021/01/23 07:17:13;;;;;;;3.27;2.90;;;;;;;1.95;100.00;94527.41;5017825;28;20447;-85
2021/01/23 07:19:40;;;;;;;7.23;3.33;;;;;;;1.92;100.00;94523.88;5020404;28;20407;-85
2021/01/23 07:22:07;;;;;;;6.57;3.30;;;;;;;1.97;100.00;94516.97;5041186;28;20410;-85
2021/01/23 07:24:34;;;;;;;5.47;4.13;;;;;;;1.96;100.00;94520.88;5040682;28;20535;-84
2021/01/23 07:27:00;;;;;;;6.37;3.37;;;;;;;1.94;100.00;94529.38;5040763;28;20511;-83
2021/01/23 07:29:27;;;;;;;6.90;3.00;;;;;;;2.01;100.00;94523.38;5031531;28;20491;-83
2021/01/23 07:31:55;;;;;;;5.20;2.77;;;;;;;1.97;100.00;94530.97;5021401;28;20452;-83
2021/01/23 07:34:22;;;;;;;7.93;4.07;;;;;;;1.98;100.00;94535.06;5019465;28;20439;-83
2021/01/23 07:36:48;;;;;;;3.70;3.23;;;;;;;2.06;100.00;94530.50;5021154;28;20527;-83
2021/01/23 07:39:16;;;;;;;4.63;3.50;;;;;;;2.06;100.00;94530.50;5019402;28;20444;-83
2021/01/23 07:41:48;;;;;;;4.90;3.70;;;;;;;2.04;100.00;94529.56;5021643;28;20499;-83
2021/01/23 07:44:16;;;;;;;4.27;3.23;;;;;;;2.05;100.00;94534.38;5018414;28;20449;-85
2021/01/23 07:46:44;;;;;;;4.90;3.30;;;;;;;2.08;100.00;94530.66;5017174;28;20452;-85
2021/01/23 07:49:21;;;;;;;4.27;3.43;;;;;;;2.09;100.00;94528.72;5016951;28;20835;-84
2021/01/23 07:51:47;;;;;;;4.70;3.90;;;;;;;2.19;100.00;94526.97;5017395;28;20530;-85
2021/01/23 07:54:14;;;;;;;4.63;3.70;;;;;;;2.25;100.00;94529.47;5018956;28;20444;-83
2021/01/23 07:56:52;;;;;;;10.17;3.60;;;;;;;2.33;100.00;94524.84;5018537;28;20551;-86
2021/01/23 07:59:18;;;;;;;5.97;4.00;;;;;;;2.31;100.00;94522.72;5017779;28;20432;-84
2021/01/23 08:01:45;;;;;;;7.00;4.10;;;;;;;2.39;100.00;94525.38;5019832;28;20485;-84
2021/01/23 08:04:34;;;;;;;5.77;3.80;;;;;;;2.42;100.00;94514.41;5017188;28;20440;-85
2021/01/23 08:07:27;;;;;;;6.77;4.60;;;;;;;2.38;100.00;94516.00;5017066;28;20440;-84
2021/01/23 08:10:15;;;;;;;7.07;3.80;;;;;;;2.38;100.00;94516.00;5017286;28;21012;-83
2021/01/23 08:12:44;;;;;;;7.80;4.00;;;;;;;2.41;100.00;94509.63;5016702;28;20821;-84
2021/01/23 08:15:11;;;;;;;5.40;3.90;;;;;;;2.50;100.00;94511.75;5018295;28;20494;-84
2021/01/23 08:17:43;;;;;;;10.40;5.33;;;;;;;2.47;100.00;94513.53;5016825;28;20494;-84
2021/01/23 08:20:13;;;;;;;7.40;3.80;;;;;;;2.43;100.00;94507.13;5017053;28;20774;-83
2021/01/23 08:23:06;;;;;;;4.97;3.80;;;;;;;2.42;100.00;94508.34;5019922;28;20562;-84
2021/01/23 08:25:35;;;;;;;9.23;3.67;;;;;;;2.45;99.99;94501.97;5019343;28;20420;-84
2021/01/23 08:28:02;;;;;;;7.63;5.33;;;;;;;2.39;100.00;94496.13;5019673;28;20488;-84
2021/01/23 08:30:28;;;;;;;7.80;4.00;;;;;;;2.51;100.00;94503.22;5020038;28;20476;-84
2021/01/23 08:32:55;;;;;;;4.83;4.17;;;;;;;2.50;99.78;94501.09;5019512;28;20418;-83
2021/01/23 08:35:24;;;;;;;11.13;5.03;;;;;;;2.55;99.72;94506.25;5020876;28;20448;-83
2021/01/23 08:37:51;;;;;;;8.03;4.40;;;;;;;2.63;99.09;94506.25;5018976;28;20498;-84
2021/01/23 08:40:19;;;;;;;6.53;3.87;;;;;;;2.53;99.51;94500.03;5019162;28;20471;-84
2021/01/23 08:42:46;;;;;;;6.00;3.80;;;;;;;2.63;99.61;94498.28;5019147;28;20432;-84
2021/01/23 08:45:14;;;;;;;3.83;3.30;;;;;;;2.72;99.40;94503.06;5019219;28;20463;-83
2021/01/23 08:47:40;;;;;;;11.70;6.23;;;;;;;2.73;99.18;94493.81;5020331;28;20541;-83
2021/01/23 08:50:08;;;;;;;10.23;4.90;;;;;;;2.85;98.50;94494.88;5018052;28;20464;-85
2021/01/23 08:52:36;;;;;;;6.13;3.90;;;;;;;2.90;98.03;94499.31;5017038;28;20926;-86
2021/01/23 08:55:03;;;;;;;5.70;4.00;;;;;;;2.93;98.04;94500.91;5018293;28;20512;-86
2021/01/23 08:57:29;;;;;;;5.33;3.93;;;;;;;3.05;97.84;94495.91;5017770;28;20440;-86
2021/01/23 08:59:56;;;;;;;7.87;4.43;;;;;;;3.08;97.60;94495.56;5018425;28;20432;-87
2021/01/23 09:02:22;;;;;;;7.33;4.63;;;;;;;3.08;97.39;94490.22;5024333;28;20859;-87
2021/01/23 09:04:48;;;;;;;5.10;3.37;;;;;;;3.05;97.26;94485.25;5036050;28;20422;-87
2021/01/23 09:07:15;;;;;;;6.33;3.70;;;;;;;3.09;97.42;94489.00;5036176;28;20526;-84
2021/01/23 09:09:42;;;;;;;6.60;3.57;;;;;;;3.17;96.74;94488.97;5035917;28;20862;-86
2021/01/23 09:12:09;;;;;;;4.80;3.93;;;;;;;3.17;97.13;94483.63;5038714;28;20455;-86
2021/01/23 09:14:36;;;;;;;9.93;3.90;;;;;;;3.27;96.74;94476.50;5036527;28;20427;-84
2021/01/23 09:17:02;;;;;;;6.57;3.90;;;;;;;3.33;96.21;94473.63;5037395;28;20459;-87
2021/01/23 09:19:29;;;;;;;10.33;3.93;;;;;;;3.29;96.32;94478.66;5037283;28;20487;-87
2021/01/23 09:21:55;;;;;;;3.43;3.13;;;;;;;3.27;96.62;94481.84;5038563;28;20482;-84
2021/01/23 09:24:22;;;;;;;5.63;3.30;;;;;;;3.32;96.06;94477.56;5041611;28;20466;-86
2021/01/23 09:26:49;;;;;;;5.17;2.87;;;;;;;3.40;96.01;94478.25;5042164;28;20415;-86
2021/01/23 09:29:15;;;;;;;8.70;3.73;;;;;;;3.47;95.66;94472.19;5040869;28;20491;-89
2021/01/23 09:31:43;;;;;;;4.93;3.77;;;;;;;3.63;95.01;94470.88;5043418;28;20463;-87
2021/01/23 09:34:11;;;;;;;5.20;3.30;;;;;;;3.70;94.43;94472.78;5037833;28;20447;-84
2021/01/23 09:36:37;;;;;;;5.50;2.80;;;;;;;3.70;93.90;94470.13;5036299;28;20443;-83
2021/01/23 09:39:04;;;;;;;3.70;2.60;;;;;;;3.83;93.17;94461.88;5037587;28;20439;-85
2021/01/23 09:41:31;;;;;;;5.57;3.63;;;;;;;3.95;92.18;94462.16;5042292;28;20452;-85
2021/01/23 09:43:58;;;;;;;5.80;3.10;;;;;;;3.92;92.56;94465.91;5040527;28;20494;-86
2021/01/23 09:46:24;;;;;;;3.63;2.70;;;;;;;4.06;92.09;94462.47;5038599;28;20467;-85
2021/01/23 09:48:51;;;;;;;3.47;2.63;;;;;;;4.09;91.93;94456.06;5040424;28;20495;-84
2021/01/23 09:51:17;;;;;;;2.90;2.30;;;;;;;4.21;91.86;94457.03;5041379;28;20520;-85
2021/01/23 09:53:44;;;;;;;6.83;3.63;;;;;;;4.16;92.13;94452.63;5040905;28;20471;-85
2021/01/23 09:56:10;;;;;;;4.90;2.93;;;;;;;4.14;92.01;94444.44;5036995;28;20879;-86
2021/01/23 09:58:36;;;;;;;3.80;2.53;;;;;;;4.17;91.84;94453.31;5038212;28;20855;-86
2021/01/23 10:01:04;;;;;;;4.17;2.67;;;;;;;4.31;91.66;94449.16;5038418;28;20863;-86
2021/01/23 10:03:30;;;;;;;5.07;4.07;;;;;;;4.26;91.09;94448.09;5036168;28;20539;-85
2021/01/23 10:05:56;;;;;;;5.60;3.13;;;;;;;4.32;91.13;94445.91;5036537;28;20450;-85
2021/01/23 10:08:23;;;;;;;6.00;4.10;;;;;;;4.28;91.44;94442.22;5037208;28;20512;-86
2021/01/23 10:10:49;;;;;;;9.63;4.10;;;;;;;4.40;91.18;94437.16;5041641;28;20459;-88
2021/01/23 10:13:16;;;;;;;4.03;3.33;;;;;;;4.38;91.15;94435.03;5043455;28;20422;-89
2021/01/23 10:15:42;;;;;;;3.97;3.40;;;;;;;4.51;90.62;94429.41;5044709;28;20461;-88
2021/01/23 10:18:09;;;;;;;9.33;2.97;;;;;;;4.49;91.24;94418.56;5037674;28;20443;-88
2021/01/23 10:20:37;;;;;;;11.60;4.10;;;;;;;4.63;90.65;94419.00;5037841;28;20426;-87
2021/01/23 10:23:03;;;;;;;3.27;2.77;;;;;;;4.69;89.80;94416.78;5037184;28;20418;-87
2021/01/23 10:25:30;;;;;;;5.63;3.10;;;;;;;4.75;89.35;94417.28;5037766;28;20551;-86
2021/01/23 10:27:56;;;;;;;3.03;2.73;;;;;;;4.67;89.74;94412.00;5037124;28;20450;-86
2021/01/23 10:30:23;;;;;;;4.90;3.13;;;;;;;4.67;89.98;94405.94;5043342;28;20436;-85
2021/01/23 10:32:50;;;;;;;4.47;3.20;;;;;;;4.78;89.47;94402.81;5057603;28;20446;-87
2021/01/23 10:35:17;;;;;;;4.03;2.73;;;;;;;4.71;89.23;94401.63;5057817;28;20489;-86
2021/01/23 10:37:44;;;;;;;7.03;2.53;;;;;;;4.65;90.04;94390.47;5057401;28;20395;-85
2021/01/23 10:40:11;;;;;;;4.47;2.90;;;;;;;4.72;90.21;94394.34;5047023;28;20533;-87
2021/01/23 10:42:37;;;;;;;6.10;3.40;;;;;;;4.68;90.43;94388.66;5040247;28;20477;-88
2021/01/23 10:45:07;;;;;;;3.10;2.80;;;;;;;4.71;90.50;94390.22;5037337;28;20450;-87
2021/01/23 10:47:34;;;;;;;3.73;3.00;;;;;;;4.64;90.39;94381.03;5037047;28;20443;-87
2021/01/23 10:50:00;;;;;;;6.70;4.40;;;;;;;4.69;90.59;94376.72;5035985;28;21001;-86
2021/01/23 10:52:27;;;;;;;6.70;3.50;;;;;;;4.69;90.25;94369.44;5036974;28;20521;-87
2021/01/23 10:54:54;;;;;;;6.77;2.97;;;;;;;4.78;90.49;94363.47;5037873;28;20462;-86
2021/01/23 10:57:21;;;;;;;5.20;3.50;;;;;;;4.77;90.35;94361.31;5037203;28;20490;-84
2021/01/23 10:59:47;;;;;;;5.27;2.70;;;;;;;4.78;90.88;94358.13;5038099;28;20908;-84
2021/01/23 11:02:13;;;;;;;3.90;2.70;;;;;;;4.89;90.07;94351.56;5037585;28;20568;-84
2021/01/23 11:04:40;;;;;;;3.70;2.50;;;;;;;4.84;89.76;94352.53;5037592;28;20571;-85
2021/01/23 11:07:06;;;;;;;4.87;2.73;;;;;;;4.93;89.57;94353.84;5035866;28;20445;-85
2021/01/23 11:09:34;;;;;;;5.63;3.20;;;;;;;4.90;89.84;94349.63;5041768;28;20487;-85
2021/01/23 11:12:00;;;;;;;7.37;2.87;;;;;;;4.99;89.76;94347.00;5043214;28;20465;-84
2021/01/23 11:14:26;;;;;;;6.43;2.70;;;;;;;5.07;88.79;94342.31;5041057;28;20486;-83
2021/01/23 11:16:53;;;;;;;4.00;2.47;;;;;;;5.00;89.03;94329.72;5045146;28;20443;-86
2021/01/23 11:19:20;;;;;;;7.83;2.87;;;;;;;4.99;89.28;94332.94;5045258;28;20516;-83
2021/01/23 11:21:47;;;;;;;4.07;2.57;;;;;;;4.97;89.00;94325.50;5042152;28;20434;-84
2021/01/23 11:24:13;;;;;;;4.70;2.10;;;;;;;4.97;89.92;94314.81;5041737;28;20432;-84
2021/01/23 11:26:40;;;;;;;4.17;2.90;;;;;;;5.10;89.74;94322.50;5043895;28;20435;-86
2021/01/23 11:29:07;;;;;;;6.10;2.60;;;;;;;5.11;89.31;94312.47;5043896;28;20453;-85
2021/01/23 11:31:33;;;;;;;3.87;2.87;;;;;;;5.09;89.01;94320.34;5044716;28;20507;-86
2021/01/23 11:34:00;;;;;;;3.87;2.37;;;;;;;5.15;88.75;94321.53;5043038;28;20426;-87
2021/01/23 11:36:27;;;;;;;6.77;3.27;;;;;;;5.30;88.51;94321.31;5042071;28;20505;-88
2021/01/23 11:38:53;;;;;;;3.70;2.50;;;;;;;5.31;88.28;94322.75;5042392;28;20421;-90
2021/01/23 11:41:19;;;;;;;5.30;3.50;;;;;;;5.36;88.64;94323.75;5041329;28;20499;-86
2021/01/23 11:43:47;;;;;;;7.27;3.47;;;;;;;5.15;89.07;94312.78;5042728;28;20447;-86
2021/01/23 11:46:13;;;;;;;4.67;3.10;;;;;;;5.24;89.68;94312.16;5042406;28;20453;-86